Time;durP1;ratioP1;P1;durP2;ratioP2;P2;SDS_P1;SDS_P2;PMS_P1;PMS_P2;Temp;Humidity;BMP_temperature;BMP_pressure;BME280_temperature;BME280_humidity;BME280_pressure;Samples;Min_cycle;Max_cycle;Signal;HPM_P1;HPM_P2
2023/10/04 00:02:06;;;;;;;6.43;1.92;;;11.70;99.90;;;;;;4910812;29;20096;-74
2023/10/04 00:04:34;;;;;;;4.97;1.98;;;11.70;99.90;;;;;;4911034;29;20251;-72
2023/10/04 00:07:02;;;;;;;5.63;1.98;;;11.70;99.90;;;;;;4910907;29;20267;-74
2023/10/04 00:09:28;;;;;;;4.15;1.63;;;11.70;99.90;;;;;;4910957;29;20083;-73
2023/10/04 00:11:53;;;;;;;4.57;1.83;;;11.70;99.90;;;;;;4910762;29;20299;-72
2023/10/04 00:14:21;;;;;;;4.40;1.90;;;11.70;99.90;;;;;;4910953;29;20044;-73
2023/10/04 00:16:47;;;;;;;4.88;2.42;;;11.70;99.90;;;;;;4909585;29;20040;-72
2023/10/04 00:19:12;;;;;;;4.28;2.00;;;11.70;99.90;;;;;;4910314;29;20032;-72
2023/10/04 00:21:38;;;;;;;5.68;2.20;;;11.60;99.90;;;;;;4910794;29;20095;-73
2023/10/04 00:24:04;;;;;;;5.82;1.77;;;11.60;99.90;;;;;;4924938;29;20028;-73
2023/10/04 00:26:30;;;;;;;3.58;1.80;;;11.60;99.90;;;;;;4910866;29;20087;-73
2023/10/04 00:28:56;;;;;;;5.53;2.03;;;11.60;99.90;;;;;;4924856;29;20029;-72
2023/10/04 05:56:34;;;;;;;13.93;4.90;;;10.30;99.90;;;;;;4888537;29;20072;-71
2023/10/04 05:59:00;;;;;;;10.95;4.05;;;10.30;99.90;;;;;;4883866;29;20073;-73
2023/10/04 06:01:28;;;;;;;11.30;4.25;;;10.40;99.90;;;;;;4896362;29;20061;-74
2023/10/04 06:03:53;;;;;;;11.63;4.00;;;10.40;99.90;;;;;;4887817;29;20056;-72
2023/10/04 06:06:20;;;;;;;11.93;4.68;;;10.40;99.90;;;;;;4873059;29;20041;-72
2023/10/04 06:08:45;;;;;;;13.40;3.63;;;10.50;99.90;;;;;;4890201;29;20017;-72
2023/10/04 06:11:11;;;;;;;11.48;4.03;;;10.50;99.90;;;;;;4885715;29;20247;-72
2023/10/04 06:13:37;;;;;;;10.95;4.05;;;10.60;99.90;;;;;;4890163;29;20063;-73
2023/10/04 06:16:04;;;;;;;8.88;3.72;;;10.60;99.90;;;;;;4890197;29;20051;-73
2023/10/04 06:18:30;;;;;;;8.52;4.25;;;10.70;99.90;;;;;;4889278;29;20043;-72
2023/10/04 06:20:56;;;;;;;8.55;4.35;;;10.80;99.90;;;;;;4872247;29;20044;-71
2023/10/04 06:23:22;;;;;;;8.05;3.92;;;10.90;99.90;;;;;;4873113;29;20017;-71
2023/10/04 06:25:52;;;;;;;8.55;3.60;;;10.90;99.90;;;;;;4889733;29;20029;-72
2023/10/04 06:28:18;;;;;;;9.63;3.92;;;11.00;99.90;;;;;;4889207;29;20440;-73
2023/10/04 06:30:48;;;;;;;8.57;3.80;;;11.20;99.90;;;;;;4889088;29;20302;-74
2023/10/04 06:33:15;;;;;;;10.00;3.63;;;11.30;99.90;;;;;;4889428;29;20033;-74
2023/10/04 06:35:43;;;;;;;12.68;4.07;;;11.50;99.90;;;;;;4872771;29;20029;-72
2023/10/04 06:38:10;;;;;;;7.97;3.65;;;11.50;99.90;;;;;;4889703;29;20056;-73
2023/10/04 06:40:37;;;;;;;13.23;3.83;;;11.60;99.90;;;;;;4889364;29;20118;-72
2023/10/04 06:43:05;;;;;;;10.55;3.85;;;11.70;99.90;;;;;;4889473;29;20041;-75
2023/10/04 06:45:31;;;;;;;9.40;3.58;;;11.80;99.90;;;;;;4872567;29;20073;-73
2023/10/04 06:47:59;;;;;;;8.13;3.50;;;12.00;99.90;;;;;;4889698;29;20084;-71
2023/10/04 06:50:32;;;;;;;12.35;4.13;;;12.10;99.90;;;;;;4888702;29;20073;-72
2023/10/04 06:52:59;;;;;;;9.32;3.83;;;12.20;99.90;;;;;;4888945;29;20039;-69
2023/10/04 06:55:25;;;;;;;12.68;5.50;;;12.30;99.90;;;;;;4875592;29;20086;-73
2023/10/04 06:57:55;;;;;;;9.98;3.03;;;12.40;99.90;;;;;;4870687;29;20052;-71
2023/10/04 07:00:29;;;;;;;8.30;3.30;;;12.50;99.90;;;;;;4870028;29;20093;-74
2023/10/04 07:02:58;;;;;;;10.48;4.30;;;12.60;99.90;;;;;;4870408;29;20227;-75
2023/10/04 07:05:43;;;;;;;8.60;3.28;;;12.60;99.90;;;;;;4862091;29;20033;-73
2023/10/04 07:08:14;;;;;;;6.28;2.72;;;12.60;99.90;;;;;;4869137;29;20029;-73
2023/10/04 07:10:39;;;;;;;5.63;2.38;;;12.70;99.90;;;;;;4867547;29;20108;-73
2023/10/04 07:13:06;;;;;;;7.22;2.97;;;12.70;99.90;;;;;;4868309;29;20066;-73
2023/10/04 07:15:35;;;;;;;7.28;2.78;;;12.80;99.90;;;;;;4868224;29;20030;-74
2023/10/04 07:18:06;;;;;;;5.85;2.40;;;12.80;99.90;;;;;;4869023;29;20223;-75
2023/10/04 07:20:33;;;;;;;8.23;3.05;;;12.90;99.90;;;;;;4882946;29;20049;-75
2023/10/04 07:23:03;;;;;;;9.35;3.10;;;13.00;99.90;;;;;;4869110;29;20315;-75
2023/10/04 07:25:31;;;;;;;8.38;2.60;;;13.00;99.90;;;;;;4868567;29;20018;-74
2023/10/04 07:28:02;;;;;;;7.75;3.13;;;13.00;99.90;;;;;;4868906;29;20040;-74
2023/10/04 07:30:29;;;;;;;7.13;3.15;;;13.10;99.90;;;;;;4864475;29;20032;-74
2023/10/04 07:32:57;;;;;;;7.15;2.88;;;13.20;99.90;;;;;;4865560;29;20068;-74
2023/10/04 07:35:31;;;;;;;8.60;3.47;;;13.40;99.90;;;;;;4867778;29;20033;-75
2023/10/04 07:38:01;;;;;;;12.50;4.30;;;13.40;99.90;;;;;;4868453;29;20038;-73
2023/10/04 07:40:27;;;;;;;7.85;3.70;;;13.50;99.90;;;;;;4868248;29;20042;-73
2023/10/04 07:42:54;;;;;;;9.13;3.75;;;13.60;99.90;;;;;;4852288;29;20021;-73
2023/10/04 07:45:25;;;;;;;7.72;3.03;;;13.60;99.90;;;;;;4869162;29;20097;-74
2023/10/04 07:47:51;;;;;;;8.60;3.92;;;13.70;99.90;;;;;;4868897;29;20322;-73
2023/10/04 07:50:22;;;;;;;31.73;5.55;;;13.80;99.90;;;;;;4868918;29;20069;-73
2023/10/04 07:52:50;;;;;;;11.23;3.78;;;14.00;99.90;;;;;;4869290;29;20062;-73
2023/10/04 07:55:19;;;;;;;6.70;3.23;;;14.00;99.90;;;;;;4869110;29;20116;-74
2023/10/04 07:57:49;;;;;;;8.30;2.85;;;14.10;99.90;;;;;;4869652;29;20045;-74
2023/10/04 08:00:16;;;;;;;11.35;4.78;;;14.10;99.90;;;;;;4876707;29;20096;-72
2023/10/04 08:02:50;;;;;;;11.00;4.15;;;14.20;99.90;;;;;;4882156;29;20049;-73
2023/10/04 08:05:24;;;;;;;8.18;3.53;;;14.20;99.90;;;;;;4880502;29;20033;-75
2023/10/04 08:07:54;;;;;;;7.85;2.63;;;14.30;99.90;;;;;;4880374;29;20034;-73
2023/10/04 08:10:25;;;;;;;7.72;3.33;;;14.40;99.90;;;;;;4872848;29;20052;-75
2023/10/04 08:12:55;;;;;;;5.88;2.90;;;14.50;99.90;;;;;;4872822;29;20041;-74
2023/10/04 08:15:25;;;;;;;10.00;3.17;;;14.60;99.90;;;;;;4886607;29;20287;-73
2023/10/04 08:17:52;;;;;;;8.82;3.42;;;14.70;99.90;;;;;;4871954;29;20093;-72
2023/10/04 08:20:21;;;;;;;8.52;3.17;;;14.80;99.90;;;;;;4872191;29;20090;-74
2023/10/04 08:22:47;;;;;;;9.05;3.42;;;14.90;99.90;;;;;;4872169;29;20038;-74
2023/10/04 08:25:18;;;;;;;8.18;3.58;;;14.90;99.90;;;;;;4871675;29;20263;-75
2023/10/04 08:27:45;;;;;;;10.05;3.90;;;15.10;99.90;;;;;;4871245;29;20045;-72
2023/10/04 08:30:13;;;;;;;8.93;3.17;;;15.20;99.90;;;;;;4871880;29;20100;-74
2023/10/04 08:32:44;;;;;;;20.00;5.20;;;15.20;99.90;;;;;;4871868;29;20092;-74
2023/10/04 08:35:28;;;;;;;12.07;3.83;;;15.30;99.90;;;;;;4855724;29;20042;-77
2023/10/04 08:37:58;;;;;;;23.80;4.80;;;15.30;99.90;;;;;;4871010;29;20056;-75
2023/10/04 08:40:27;;;;;;;8.32;3.42;;;15.40;99.90;;;;;;4870411;29;20041;-76
2023/10/04 08:43:22;;;;;;;5.85;2.22;;;15.50;99.90;;;;;;4871958;29;20307;-80
2023/10/04 08:45:47;;;;;;;4.55;1.10;;;15.60;99.90;;;;;;4871266;29;20045;-77
2023/10/04 08:48:13;;;;;;;5.07;1.30;;;15.70;99.20;;;;;;4871323;29;20208;-75
2023/10/04 08:50:39;;;;;;;6.18;1.00;;;15.80;97.70;;;;;;4854728;29;20037;-76
2023/10/04 08:53:22;;;;;;;5.57;1.00;;;15.90;97.20;;;;;;4871512;29;20181;-73
2023/10/04 08:55:56;;;;;;;15.77;2.00;;;16.00;96.10;;;;;;4871457;29;20045;-75
2023/10/04 08:58:22;;;;;;;4.32;0.90;;;16.00;95.90;;;;;;4871308;29;20034;-74
2023/10/04 09:00:50;;;;;;;7.88;1.27;;;16.10;95.20;;;;;;4870810;29;20337;-75
2023/10/04 09:03:21;;;;;;;6.35;1.00;;;16.10;95.50;;;;;;4885597;29;20033;-75
2023/10/04 09:05:50;;;;;;;7.10;1.33;;;16.20;95.00;;;;;;4870514;29;20064;-75
2023/10/04 09:08:16;;;;;;;5.78;1.48;;;16.20;95.00;;;;;;4871392;29;20025;-72
2023/10/04 09:10:43;;;;;;;5.93;1.20;;;16.20;95.40;;;;;;4869961;29;20045;-72
2023/10/04 09:13:09;;;;;;;5.40;1.80;;;16.40;94.70;;;;;;4869035;29;20044;-76
2023/10/04 09:15:36;;;;;;;3.25;0.90;;;16.50;94.40;;;;;;4870822;29;20062;-74
2023/10/04 09:18:04;;;;;;;6.70;1.20;;;16.50;93.80;;;;;;4854271;29;20053;-76
2023/10/04 09:20:32;;;;;;;;;;;16.50;93.70;;;;;;4871195;29;20109;-75
2023/10/04 09:23:01;;;;;;;4.57;1.00;;;16.50;94.00;;;;;;4871056;29;19944;-74
2023/10/04 09:25:38;;;;;;;5.68;1.23;;;16.50;93.40;;;;;;4866661;29;20033;-72
2023/10/04 09:28:10;;;;;;;6.68;0.95;;;16.60;92.90;;;;;;4870978;29;20038;-73
2023/10/04 09:30:36;;;;;;;6.93;1.65;;;16.80;92.80;;;;;;4870405;29;20031;-75
2023/10/04 09:33:21;;;;;;;6.25;1.20;;;16.80;93.20;;;;;;4867906;29;20042;-76
2023/10/04 09:35:46;;;;;;;6.40;1.50;;;16.90;92.60;;;;;;4868428;29;20057;-75
2023/10/04 09:38:18;;;;;;;9.00;1.40;;;17.00;91.10;;;;;;4870533;29;20068;-76
2023/10/04 09:40:55;;;;;;;9.70;2.15;;;17.00;91.40;;;;;;4853835;29;20037;-77
2023/10/04 09:43:37;;;;;;;4.80;1.15;;;17.10;91.10;;;;;;4870704;29;20222;-76
2023/10/04 09:46:11;;;;;;;9.32;1.48;;;17.20;90.60;;;;;;4870668;29;20037;-77
2023/10/04 09:48:40;;;;;;;5.20;1.13;;;17.20;90.70;;;;;;4853935;29;20065;-77
2023/10/04 09:51:09;;;;;;;8.75;1.00;;;17.20;90.00;;;;;;4870406;29;20037;-77
2023/10/04 09:53:41;;;;;;;5.65;1.20;;;17.40;90.00;;;;;;4853126;29;20029;-79
2023/10/04 09:56:11;;;;;;;6.75;0.95;;;17.40;88.80;;;;;;4870278;29;20049;-77
2023/10/04 09:58:45;;;;;;;14.00;1.65;;;17.30;89.20;;;;;;4870158;29;20041;-74
2023/10/04 10:01:12;;;;;;;4.80;1.50;;;17.50;89.40;;;;;;4868973;29;20057;-75
2023/10/04 10:03:52;;;;;;;6.38;1.00;;;17.50;89.80;;;;;;4869794;29;20034;-77
2023/10/04 10:06:23;;;;;;;8.45;1.15;;;17.70;89.00;;;;;;4867048;29;20071;-75
2023/10/04 10:09:00;;;;;;;5.40;1.48;;;17.80;88.90;;;;;;4869972;29;20041;-75
2023/10/04 10:11:27;;;;;;;3.45;0.90;;;17.90;88.60;;;;;;4870223;29;20055;-78
2023/10/04 10:13:54;;;;;;;6.70;1.15;;;18.00;88.00;;;;;;4854651;29;20040;-77
2023/10/04 10:16:20;;;;;;;3.47;0.95;;;18.20;87.40;;;;;;4852975;29;20033;-76
2023/10/04 10:18:48;;;;;;;3.53;1.15;;;18.40;87.20;;;;;;4884441;29;20040;-75
2023/10/04 10:21:13;;;;;;;6.07;1.17;;;18.50;87.00;;;;;;4868697;29;20060;-76
2023/10/04 10:23:58;;;;;;;7.32;1.08;;;18.80;86.80;;;;;;4869436;29;20024;-75
2023/10/04 10:26:24;;;;;;;4.25;1.08;;;19.20;86.60;;;;;;4870011;29;20104;-75
2023/10/04 10:28:59;;;;;;;5.07;1.15;;;19.60;84.10;;;;;;4869511;29;20236;-76
2023/10/04 10:31:26;;;;;;;5.32;0.95;;;19.90;82.90;;;;;;4869820;29;20045;-75
2023/10/04 10:33:55;;;;;;;5.00;1.15;;;20.00;81.80;;;;;;4853856;29;20033;-76
2023/10/04 10:36:23;;;;;;;3.95;1.23;;;20.10;81.80;;;;;;4869923;29;20021;-75
2023/10/04 10:38:54;;;;;;;5.53;1.00;;;20.10;81.30;;;;;;4869462;29;20021;-76
2023/10/04 10:41:30;;;;;;;4.75;1.00;;;20.10;81.40;;;;;;4850250;29;20049;-74
2023/10/04 10:44:33;;;;;;;3.83;0.90;;;20.40;80.10;;;;;;4869210;29;20033;-76
2023/10/04 10:47:22;;;;;;;3.85;1.15;;;20.70;79.00;;;;;;4830358;29;20049;-74
2023/10/04 10:49:58;;;;;;;4.97;0.90;;;21.30;78.00;;;;;;4868890;29;20041;-74
2023/10/04 10:52:38;;;;;;;4.75;1.05;;;21.70;75.30;;;;;;4869430;29;20048;-75
2023/10/04 10:55:14;;;;;;;3.75;1.00;;;21.60;75.70;;;;;;4869242;29;20057;-75
2023/10/04 10:57:43;;;;;;;4.35;0.98;;;21.40;74.30;;;;;;4868779;29;20052;-76
2023/10/04 11:00:24;;;;;;;4.90;1.05;;;21.10;74.90;;;;;;4869653;29;20041;-78
2023/10/04 11:02:55;;;;;;;3.55;0.90;;;21.20;74.20;;;;;;4865126;29;20041;-75
2023/10/04 11:05:25;;;;;;;3.63;1.08;;;20.80;75.20;;;;;;4854621;29;20307;-76
2023/10/04 11:07:53;;;;;;;3.67;0.88;;;21.50;74.30;;;;;;4869396;29;20060;-75
2023/10/04 11:10:23;;;;;;;3.60;1.03;;;22.50;71.90;;;;;;4852755;29;20033;-78
2023/10/04 11:12:54;;;;;;;4.13;1.05;;;23.80;68.90;;;;;;4867641;29;20037;-74
2023/10/04 11:15:41;;;;;;;3.67;1.23;;;24.70;67.10;;;;;;4883770;29;20064;-78
2023/10/04 11:18:20;;;;;;;4.30;1.10;;;25.50;65.10;;;;;;4846871;29;20045;-77
2023/10/04 11:21:04;;;;;;;3.83;1.10;;;25.90;63.40;;;;;;4867664;29;20036;-78
2023/10/04 11:23:30;;;;;;;5.75;1.15;;;26.60;62.60;;;;;;4868925;29;20034;-77
2023/10/04 11:25:59;;;;;;;4.85;1.00;;;27.20;60.70;;;;;;4869198;29;20216;-80
2023/10/04 11:28:30;;;;;;;3.67;1.20;;;26.70;61.20;;;;;;4883366;29;20135;-78
2023/10/04 11:31:03;;;;;;;5.10;1.10;;;25.70;62.20;;;;;;4869163;29;20037;-77
2023/10/04 11:33:29;;;;;;;3.08;1.25;;;25.30;63.00;;;;;;4868825;29;20207;-76
2023/10/04 11:35:55;;;;;;;5.35;1.10;;;25.40;62.50;;;;;;4869199;29;20037;-76
2023/10/04 11:38:23;;;;;;;3.65;1.20;;;25.10;62.60;;;;;;4868715;29;20093;-75
2023/10/04 11:40:49;;;;;;;;;;;24.90;62.60;;;;;;4869111;29;20403;-77
2023/10/04 11:43:15;;;;;;;3.38;0.93;;;24.00;63.50;;;;;;4869400;29;19908;-75
2023/10/04 11:45:41;;;;;;;4.63;0.95;;;23.10;65.60;;;;;;4870076;29;20064;-75
2023/10/04 11:48:10;;;;;;;3.83;0.90;;;22.60;67.40;;;;;;4870225;29;20045;-77
2023/10/04 11:50:45;;;;;;;4.45;0.95;;;23.40;65.40;;;;;;4869632;29;20341;-74
2023/10/04 11:53:28;;;;;;;3.70;0.80;;;24.50;64.00;;;;;;4870037;29;20029;-75
2023/10/04 11:56:01;;;;;;;3.28;0.80;;;25.90;60.80;;;;;;4865728;29;20049;-75
2023/10/04 11:58:30;;;;;;;3.05;0.90;;;27.00;58.70;;;;;;4869527;29;20033;-75
2023/10/04 12:01:06;;;;;;;3.22;1.02;;;27.90;57.10;;;;;;4869850;29;20311;-75
2023/10/04 12:03:32;;;;;;;2.35;1.00;;;28.40;56.50;;;;;;4869837;29;20207;-75
2023/10/04 12:05:59;;;;;;;3.97;1.20;;;28.90;55.40;;;;;;4869797;29;20256;-76
2023/10/04 12:08:25;;;;;;;3.92;1.02;;;28.70;54.70;;;;;;4869797;29;20033;-74
2023/10/04 12:10:51;;;;;;;4.28;1.08;;;29.10;54.90;;;;;;4869564;29;20316;-75
2023/10/04 12:13:18;;;;;;;2.47;0.82;;;29.60;54.30;;;;;;4869926;29;20060;-75
2023/10/04 12:15:45;;;;;;;4.20;0.80;;;29.00;54.20;;;;;;4869950;29;20204;-74
2023/10/04 12:18:10;;;;;;;2.92;0.98;;;28.60;55.90;;;;;;4869945;29;20033;-75
2023/10/04 12:20:36;;;;;;;5.47;1.10;;;29.30;55.20;;;;;;4855677;29;20361;-73
2023/10/04 12:23:02;;;;;;;4.50;0.90;;;29.10;55.00;;;;;;4876977;29;20054;-75
2023/10/04 12:25:28;;;;;;;4.30;0.90;;;27.80;54.80;;;;;;4877628;29;20050;-73
2023/10/04 12:27:54;;;;;;;4.20;1.15;;;26.80;56.90;;;;;;4872766;29;20037;-75
2023/10/04 12:30:23;;;;;;;2.25;0.60;;;27.20;56.70;;;;;;4869843;29;20025;-74
2023/10/04 12:32:49;;;;;;;4.13;0.70;;;28.20;55.60;;;;;;4870313;29;20065;-77
2023/10/04 12:35:15;;;;;;;9.77;2.03;;;29.50;53.70;;;;;;4869989;29;20217;-75
2023/10/04 12:37:41;;;;;;;4.88;1.02;;;30.10;53.20;;;;;;4869474;29;20101;-76
2023/10/04 12:40:17;;;;;;;2.75;0.55;;;30.70;51.00;;;;;;4853216;29;20033;-77
2023/10/04 12:42:48;;;;;;;4.50;0.88;;;29.80;51.60;;;;;;4869244;29;20044;-76
2023/10/04 12:45:15;;;;;;;2.08;0.70;;;30.40;50.80;;;;;;4854620;29;20033;-74
2023/10/04 12:47:41;;;;;;;3.33;0.70;;;29.90;50.30;;;;;;4872408;29;20331;-76
2023/10/04 12:50:09;;;;;;;4.05;1.08;;;29.30;51.60;;;;;;4873032;29;20085;-75
2023/10/04 12:52:35;;;;;;;;;;;28.10;53.30;;;;;;4872959;29;20201;-76
2023/10/04 12:55:02;;;;;;;3.70;0.68;;;28.30;53.40;;;;;;4872667;29;19916;-77
2023/10/04 12:57:28;;;;;;;3.97;1.08;;;29.20;52.80;;;;;;4872525;29;20212;-76
2023/10/04 12:59:54;;;;;;;4.32;1.00;;;30.30;51.20;;;;;;4872605;29;20036;-75
2023/10/04 13:02:22;;;;;;;2.97;0.98;;;30.60;51.80;;;;;;4873041;29;20138;-77
2023/10/04 13:04:50;;;;;;;3.38;1.00;;;32.20;49.60;;;;;;4872422;29;20025;-75
2023/10/04 13:07:17;;;;;;;4.72;0.90;;;33.10;49.30;;;;;;4887347;29;20037;-77
2023/10/04 13:09:44;;;;;;;3.17;0.87;;;33.00;47.60;;;;;;4872404;29;20299;-76
2023/10/04 13:12:11;;;;;;;2.40;0.70;;;32.20;48.00;;;;;;4872527;29;20375;-76
2023/10/04 13:14:40;;;;;;;3.95;1.17;;;32.30;48.50;;;;;;4871349;29;20058;-76
2023/10/04 13:17:06;;;;;;;2.55;0.80;;;32.90;49.70;;;;;;4872667;29;20045;-76
2023/10/04 13:19:35;;;;;;;2.75;0.85;;;32.60;48.00;;;;;;4872744;29;20081;-74
2023/10/04 13:22:01;;;;;;;2.35;0.88;;;33.10;48.50;;;;;;4872139;29;20051;-75
2023/10/04 13:24:31;;;;;;;3.25;0.90;;;32.50;47.30;;;;;;4872123;29;20025;-74
2023/10/04 13:26:57;;;;;;;2.42;0.70;;;32.30;47.50;;;;;;4871604;29;20243;-75
2023/10/04 13:29:23;;;;;;;3.58;1.00;;;32.10;47.80;;;;;;4872493;29;20210;-75
2023/10/04 13:31:49;;;;;;;3.35;0.60;;;31.30;48.10;;;;;;4886121;29;20029;-74
2023/10/04 13:34:15;;;;;;;3.50;1.00;;;30.20;48.50;;;;;;4886661;29;20303;-76
2023/10/04 13:36:40;;;;;;;3.00;0.90;;;29.20;49.90;;;;;;4871764;29;20108;-76
2023/10/04 13:39:06;;;;;;;2.85;0.80;;;29.20;50.00;;;;;;4872113;29;20049;-77
2023/10/04 13:41:32;;;;;;;3.60;0.80;;;29.50;50.60;;;;;;4886557;29;20022;-76
2023/10/04 13:43:58;;;;;;;2.72;0.90;;;29.90;49.30;;;;;;4870664;29;20032;-75
2023/10/04 13:46:24;;;;;;;4.28;0.80;;;29.80;48.90;;;;;;4871628;29;20041;-76
2023/10/04 13:48:50;;;;;;;2.67;0.85;;;29.90;48.60;;;;;;4871613;29;20322;-76
2023/10/04 13:51:22;;;;;;;2.60;0.80;;;30.00;49.70;;;;;;4872056;29;20029;-77
2023/10/04 13:53:51;;;;;;;2.63;1.00;;;29.80;50.00;;;;;;4871044;29;20349;-75
2023/10/04 13:56:17;;;;;;;4.20;1.10;;;29.20;48.90;;;;;;4871069;29;20045;-74
2023/10/04 13:58:43;;;;;;;3.42;0.90;;;28.90;50.10;;;;;;4871360;29;20117;-76
2023/10/04 14:01:09;;;;;;;3.03;0.88;;;28.70;49.90;;;;;;4871790;29;20057;-76
2023/10/04 14:03:39;;;;;;;2.25;0.82;;;28.50;50.80;;;;;;4871891;29;20033;-75
2023/10/04 14:06:12;;;;;;;3.25;0.82;;;28.30;50.80;;;;;;4871703;29;20029;-76
2023/10/04 14:08:43;;;;;;;2.83;0.90;;;27.50;51.30;;;;;;4871411;29;20061;-75
2023/10/04 14:11:10;;;;;;;3.90;1.25;;;26.90;53.10;;;;;;4871237;29;20343;-76
2023/10/04 14:13:38;;;;;;;3.00;0.90;;;26.60;53.40;;;;;;4871335;29;20044;-75
2023/10/04 14:16:06;;;;;;;3.42;0.93;;;26.60;53.70;;;;;;4885606;29;20068;-77
2023/10/04 14:18:31;;;;;;;2.47;0.75;;;26.60;53.00;;;;;;4886129;29;20071;-76
2023/10/04 14:20:58;;;;;;;4.10;1.17;;;26.30;53.80;;;;;;4870754;29;20021;-76
2023/10/04 14:23:25;;;;;;;2.40;0.73;;;26.10;53.70;;;;;;4871096;29;20076;-76
2023/10/04 14:25:54;;;;;;;3.55;0.90;;;26.10;55.10;;;;;;4869621;29;20112;-76
2023/10/04 14:28:22;;;;;;;2.33;0.80;;;26.40;53.30;;;;;;4871081;29;20204;-76
2023/10/04 14:30:47;;;;;;;4.18;1.00;;;26.60;54.30;;;;;;4870942;29;20223;-75
2023/10/04 14:33:13;;;;;;;2.83;0.88;;;26.40;55.00;;;;;;4871117;29;20033;-76
2023/10/04 14:35:39;;;;;;;3.22;0.60;;;26.10;53.70;;;;;;4860668;29;20101;-75
2023/10/04 14:38:06;;;;;;;2.80;1.00;;;25.70;53.90;;;;;;4852168;29;20319;-76
2023/10/04 14:40:32;;;;;;;5.95;1.30;;;25.60;53.90;;;;;;4852565;29;20048;-76
2023/10/04 14:42:58;;;;;;;4.20;0.98;;;25.60;54.40;;;;;;4851057;29;20218;-75
2023/10/04 14:45:24;;;;;;;2.22;0.50;;;25.90;54.60;;;;;;4852564;29;20113;-74
2023/10/04 14:47:51;;;;;;;3.15;0.80;;;26.60;53.70;;;;;;4835590;29;20046;-75
2023/10/04 14:50:18;;;;;;;2.15;0.80;;;27.30;52.80;;;;;;4836425;29;20304;-76
2023/10/04 14:52:45;;;;;;;3.63;1.02;;;27.90;52.50;;;;;;4852082;29;20042;-76
2023/10/04 14:55:16;;;;;;;4.10;0.80;;;28.20;51.50;;;;;;4851890;29;20261;-79
2023/10/04 14:57:43;;;;;;;3.25;0.98;;;28.00;52.30;;;;;;4852107;29;20030;-77
2023/10/04 15:00:20;;;;;;;2.70;0.77;;;27.70;53.10;;;;;;4851960;29;20030;-76
2023/10/04 15:02:47;;;;;;;3.00;0.80;;;27.50;53.20;;;;;;4851996;29;20038;-75
2023/10/04 15:05:13;;;;;;;3.00;1.05;;;27.60;52.80;;;;;;4852295;29;20042;-76
2023/10/04 15:07:40;;;;;;;3.75;1.05;;;27.50;52.90;;;;;;4852012;29;20212;-76
2023/10/04 15:10:08;;;;;;;4.25;0.90;;;27.60;52.60;;;;;;4851192;29;20142;-77
2023/10/04 15:12:34;;;;;;;3.13;0.90;;;28.10;51.80;;;;;;4852392;29;20038;-75
2023/10/04 15:15:04;;;;;;;2.17;0.55;;;29.20;51.20;;;;;;4851373;29;20353;-80
2023/10/04 15:17:30;;;;;;;3.00;0.82;;;28.80;50.80;;;;;;4852101;29;20222;-75
2023/10/04 15:19:56;;;;;;;3.70;0.93;;;27.80;51.10;;;;;;4865988;29;20038;-76
2023/10/04 15:22:21;;;;;;;3.38;0.90;;;27.30;51.90;;;;;;4852167;29;20034;-77
2023/10/04 15:28:28;;;;;;;3.90;0.90;;;25.30;54.60;;;;;;4849846;29;20037;-76
2023/10/04 15:30:56;;;;;;;3.28;1.20;;;24.10;56.70;;;;;;4851786;29;20061;-75
2023/10/04 15:33:22;;;;;;;4.93;1.00;;;23.20;58.10;;;;;;4851632;29;20061;-77
2023/10/04 15:35:47;;;;;;;3.63;1.08;;;23.00;59.20;;;;;;4851252;29;20034;-77
2023/10/04 15:38:13;;;;;;;2.13;0.70;;;23.00;59.00;;;;;;4851778;29;20101;-78
2023/10/04 15:40:41;;;;;;;3.08;0.80;;;23.30;58.40;;;;;;4851111;29;20059;-76
2023/10/04 15:43:16;;;;;;;2.80;0.88;;;23.70;58.20;;;;;;4854705;29;20026;-77
2023/10/04 15:45:42;;;;;;;5.18;1.00;;;23.80;57.30;;;;;;4857156;29;20042;-76
2023/10/04 15:48:11;;;;;;;5.25;1.50;;;23.90;58.90;;;;;;4866861;29;20203;-78
2023/10/04 15:50:38;;;;;;;3.88;1.00;;;23.60;58.20;;;;;;4883027;29;20296;-75
2023/10/04 15:53:10;;;;;;;3.80;0.93;;;23.20;59.50;;;;;;4851424;29;20054;-75
2023/10/04 15:55:36;;;;;;;3.30;1.00;;;22.90;60.50;;;;;;4851402;29;20089;-76
2023/10/04 15:58:03;;;;;;;2.58;0.85;;;22.50;60.40;;;;;;4851620;29;20053;-78
2023/10/04 16:00:38;;;;;;;5.70;1.25;;;22.30;60.70;;;;;;4851692;29;20087;-77
2023/10/04 16:03:04;;;;;;;6.57;1.20;;;22.00;61.40;;;;;;4851610;29;20049;-76
2023/10/04 16:05:31;;;;;;;3.60;1.10;;;21.90;62.50;;;;;;4851573;29;20030;-76
2023/10/04 16:07:58;;;;;;;4.97;1.15;;;21.70;62.80;;;;;;4865629;29;20041;-75
2023/10/04 16:10:25;;;;;;;5.15;1.38;;;21.50;63.60;;;;;;4850794;29;20034;-75
2023/10/04 16:12:53;;;;;;;2.92;1.00;;;21.30;64.30;;;;;;4851731;29;20046;-76
2023/10/04 16:15:19;;;;;;;5.15;1.02;;;21.00;64.90;;;;;;4851798;29;20042;-75
2023/10/04 16:17:50;;;;;;;3.42;1.08;;;20.70;66.00;;;;;;4851487;29;20070;-76
2023/10/04 16:20:16;;;;;;;4.90;1.83;;;20.50;67.40;;;;;;4853011;29;20082;-75
2023/10/04 16:22:53;;;;;;;3.05;0.88;;;20.20;67.50;;;;;;4855042;29;20249;-76
2023/10/04 16:25:21;;;;;;;4.93;1.30;;;20.00;68.20;;;;;;4855362;29;20097;-77
2023/10/04 16:27:49;;;;;;;4.43;1.20;;;19.90;69.20;;;;;;4854781;29;20049;-75
2023/10/04 16:30:16;;;;;;;4.18;1.38;;;19.60;70.00;;;;;;4856265;29;20304;-74
2023/10/04 16:32:48;;;;;;;5.00;1.30;;;19.40;70.70;;;;;;4861122;29;20075;-75
2023/10/04 16:35:15;;;;;;;6.47;1.98;;;19.20;72.10;;;;;;4865155;29;20033;-74
2023/10/04 16:37:42;;;;;;;4.72;1.48;;;18.90;73.00;;;;;;4864840;29;20049;-74
2023/10/04 16:40:15;;;;;;;5.93;1.65;;;18.80;73.30;;;;;;4859038;29;20064;-74
2023/10/04 16:42:42;;;;;;;4.28;1.30;;;18.70;73.90;;;;;;4854784;29;20034;-75
2023/10/04 16:45:08;;;;;;;4.72;1.25;;;18.50;74.10;;;;;;4854838;29;20098;-77
2023/10/04 16:47:34;;;;;;;4.00;1.33;;;18.30;74.50;;;;;;4854811;29;20395;-76
2023/10/04 16:50:00;;;;;;;4.40;1.52;;;18.10;75.10;;;;;;4854298;29;20042;-79
2023/10/04 16:52:26;;;;;;;4.00;1.45;;;18.00;75.80;;;;;;4838171;29;20079;-76
2023/10/04 16:54:53;;;;;;;6.35;1.25;;;17.90;76.70;;;;;;4853568;29;20054;-76
2023/10/04 16:57:19;;;;;;;6.35;1.30;;;17.80;77.20;;;;;;4854515;29;20069;-76
2023/10/04 16:59:49;;;;;;;3.95;1.50;;;17.70;77.10;;;;;;4852920;29;20026;-77
2023/10/04 17:02:16;;;;;;;6.75;1.15;;;17.60;77.70;;;;;;4854334;29;20216;-76
2023/10/04 17:04:42;;;;;;;7.00;1.52;;;17.40;78.30;;;;;;4854116;29;20047;-77
2023/10/04 17:07:08;;;;;;;4.70;1.17;;;17.30;78.50;;;;;;4868929;29;20029;-77
2023/10/04 17:09:34;;;;;;;5.43;1.23;;;17.20;79.10;;;;;;4854788;29;20038;-75
2023/10/04 17:12:00;;;;;;;6.47;1.40;;;17.10;79.20;;;;;;4848792;29;20074;-77
2023/10/04 17:14:27;;;;;;;4.03;1.33;;;17.00;79.70;;;;;;4854259;29;20029;-75
2023/10/04 17:16:53;;;;;;;5.70;1.23;;;16.90;80.20;;;;;;4853650;29;20041;-76
2023/10/04 17:19:18;;;;;;;4.88;1.48;;;16.80;80.60;;;;;;4854081;29;20219;-77
2023/10/04 17:21:44;;;;;;;3.80;1.58;;;16.70;80.90;;;;;;4853368;29;20034;-75
2023/10/04 17:24:10;;;;;;;5.63;1.48;;;16.60;81.00;;;;;;4868706;29;20045;-75
2023/10/04 17:26:35;;;;;;;4.20;1.52;;;16.60;81.60;;;;;;4853932;29;20038;-75
2023/10/04 17:29:01;;;;;;;4.43;1.83;;;16.60;81.90;;;;;;4853469;29;20282;-75
2023/10/04 17:31:32;;;;;;;4.55;1.65;;;16.50;82.50;;;;;;4853506;29;20042;-77
2023/10/04 17:33:58;;;;;;;5.35;1.60;;;16.50;82.90;;;;;;4850990;29;20038;-76
2023/10/04 17:36:24;;;;;;;4.85;1.60;;;16.40;83.00;;;;;;4868080;29;20082;-78
2023/10/04 17:38:50;;;;;;;5.63;1.38;;;16.40;83.40;;;;;;4853278;29;20054;-79
2023/10/04 17:41:16;;;;;;;6.72;1.73;;;16.40;83.70;;;;;;4868005;29;20041;-78
2023/10/04 17:43:46;;;;;;;8.35;1.95;;;16.30;84.10;;;;;;4825348;29;20042;-77
2023/10/04 17:46:13;;;;;;;6.20;1.92;;;16.30;84.40;;;;;;4835645;29;20042;-78
2023/10/04 17:48:47;;;;;;;6.20;1.77;;;16.30;84.30;;;;;;4835281;29;20049;-77
2023/10/04 17:51:16;;;;;;;6.28;2.50;;;16.20;84.50;;;;;;4819085;29;20027;-77
2023/10/04 17:53:44;;;;;;;3.92;1.85;;;16.30;85.20;;;;;;4835039;29;20347;-77
2023/10/04 17:56:10;;;;;;;6.60;2.63;;;16.20;85.00;;;;;;4849833;29;20051;-77
2023/10/04 17:58:40;;;;;;;5.75;1.90;;;16.20;84.70;;;;;;4853845;29;20041;-77
2023/10/04 18:01:11;;;;;;;5.13;1.98;;;16.20;85.00;;;;;;4851819;29;20026;-77
2023/10/04 18:03:41;;;;;;;5.50;2.53;;;16.10;85.60;;;;;;4839561;29;20116;-78
2023/10/04 18:06:06;;;;;;;5.85;2.30;;;16.00;86.20;;;;;;4852661;29;20272;-77
2023/10/04 18:08:38;;;;;;;6.35;2.60;;;16.00;86.90;;;;;;4852297;29;20075;-77
2023/10/04 18:11:04;;;;;;;6.35;2.85;;;15.90;87.60;;;;;;4838603;29;20106;-77
2023/10/04 18:13:32;;;;;;;7.13;2.83;;;15.70;88.10;;;;;;4833467;29;20042;-77
2023/10/04 18:15:58;;;;;;;7.28;2.65;;;15.60;88.90;;;;;;4832738;29;20046;-77
2023/10/04 18:18:24;;;;;;;7.22;3.00;;;15.50;89.80;;;;;;4836099;29;20158;-77
2023/10/04 18:20:50;;;;;;;7.35;2.80;;;15.40;90.10;;;;;;4850988;29;20049;-76
2023/10/04 18:23:19;;;;;;;6.35;2.80;;;15.30;90.20;;;;;;4851239;29;20032;-76